createdAt,value
2014-07-19T20:09:24.476Z,100818
2014-07-19T20:09:42.679Z,100818
2014-07-19T20:10:07.149Z,100812
2014-07-19T20:10:25.336Z,100812
2014-07-19T20:10:43.539Z,100815
2014-07-19T20:11:01.729Z,100812
2014-07-19T20:11:19.916Z,100815
2014-07-19T20:11:38.119Z,100812
2014-07-19T20:11:56.307Z,100815
2014-07-19T20:12:14.512Z,100810
2014-07-19T20:12:32.715Z,100818
2014-07-19T20:12:50.903Z,100820
2014-07-19T20:13:12.639Z,100808
2014-07-19T20:13:30.795Z,100811
2014-07-19T20:13:48.998Z,100825
2014-07-19T20:14:07.188Z,100814
2014-07-19T20:14:25.375Z,100819
2014-07-19T20:14:43.579Z,100825
2014-07-19T20:15:01.768Z,100819
2014-07-19T20:15:19.971Z,100825
2014-07-19T20:15:38.159Z,100811
2014-07-19T20:15:56.362Z,100816
2014-07-19T20:16:14.551Z,100811
2014-07-19T20:16:32.754Z,100813
2014-07-19T20:16:50.958Z,100825
2014-07-19T20:17:09.147Z,100810
2014-07-19T20:17:27.335Z,100816
2014-07-19T20:17:45.538Z,100813
2014-07-19T20:18:15.726Z,100810
2014-07-19T20:18:33.914Z,100822
2014-07-19T20:18:52.117Z,100807
2014-07-19T20:19:10.338Z,100819
2014-07-19T20:19:28.509Z,100819
2014-07-19T20:19:46.713Z,100810
2014-07-19T20:20:04.900Z,100813
2014-07-19T20:20:23.106Z,100816
2014-07-19T20:20:41.294Z,100816
2014-07-19T20:20:59.497Z,100819
2014-07-19T20:21:17.686Z,100810
2014-07-19T20:21:35.874Z,100813
2014-07-19T20:21:54.077Z,100822
2014-07-19T20:22:12.265Z,100813
2014-07-19T20:22:30.469Z,100816
2014-07-19T20:22:48.672Z,100813
2014-07-19T20:23:06.859Z,100807
2014-07-19T20:23:25.050Z,100810
2014-07-19T20:23:43.253Z,100810
2014-07-19T20:24:01.456Z,100810
2014-07-19T20:24:19.645Z,100816
2014-07-19T20:24:37.849Z,100813
2014-07-19T20:24:56.036Z,100810
2014-07-19T20:25:14.240Z,100816
2014-07-19T20:25:32.428Z,100813
2014-07-19T20:25:50.631Z,100813
2014-07-19T20:26:08.818Z,100810
2014-07-19T20:26:27.023Z,100825
2014-07-19T20:26:45.211Z,100819
2014-07-19T20:27:03.414Z,100810
2014-07-19T20:27:21.604Z,100816
2014-07-19T20:27:39.807Z,100810
2014-07-19T20:27:57.994Z,100813
2014-07-19T20:28:16.197Z,100807
2014-07-19T20:28:34.388Z,100813
2014-07-19T20:28:52.591Z,100816
2014-07-19T20:29:10.794Z,100819
2014-07-19T20:29:28.984Z,100807
2014-07-19T20:29:47.171Z,100816
2014-07-19T20:30:05.374Z,100813
2014-07-19T20:30:23.578Z,100807
2014-07-19T20:30:41.766Z,100802
2014-07-19T20:30:59.969Z,100819
2014-07-19T20:31:18.156Z,100813
2014-07-19T20:31:36.362Z,100808
2014-07-19T20:31:54.549Z,100816
2014-07-19T20:32:12.752Z,100816
2014-07-19T20:32:30.943Z,100816
2014-07-19T20:32:49.146Z,100808
2014-07-19T20:33:07.333Z,100808
2014-07-19T20:33:25.537Z,100810
2014-07-19T20:33:43.725Z,100810
2014-07-19T20:34:01.912Z,100816
2014-07-19T20:34:20.116Z,100813
2014-07-19T20:34:38.321Z,100816
2014-07-19T20:34:56.508Z,100816
2014-07-19T20:35:14.711Z,100816
2014-07-19T20:35:32.901Z,100816
2014-07-19T20:35:51.104Z,100816
2014-07-19T20:36:09.291Z,100813
2014-07-19T20:36:27.497Z,100813
2014-07-19T20:36:45.684Z,100813
2014-07-19T20:37:03.887Z,100825
2014-07-19T20:37:22.075Z,100822
2014-07-19T20:37:40.327Z,100819
2014-07-19T20:37:58.499Z,100813
2014-07-19T20:38:16.749Z,100819
2014-07-19T20:38:34.954Z,100816
2014-07-19T20:38:53.141Z,100819
2014-07-19T20:39:11.344Z,100819
2014-07-19T20:39:29.534Z,100816
2014-07-19T20:39:47.721Z,100816
2014-07-19T20:40:05.924Z,100813
2014-07-19T20:40:24.113Z,100813
2014-07-19T20:40:42.316Z,100819
2014-07-19T20:41:00.519Z,100816
2014-07-19T20:41:18.707Z,100816
2014-07-19T20:41:36.896Z,100813
2014-07-19T20:41:55.099Z,100816
2014-07-19T20:42:13.287Z,100807
2014-07-19T20:42:31.492Z,100819
2014-07-19T20:42:49.742Z,100816
2014-07-19T20:43:07.945Z,100808
2014-07-19T20:43:26.150Z,100810
2014-07-19T20:43:44.338Z,100808
2014-07-19T20:44:02.541Z,100808
2014-07-19T20:44:20.728Z,100805
2014-07-19T20:44:38.933Z,100813
2014-07-19T20:44:57.121Z,100808
2014-07-19T20:45:15.324Z,100810
2014-07-19T20:45:33.529Z,100810
2014-07-19T20:45:51.717Z,100802
2014-07-19T20:46:09.920Z,100813
2014-07-19T20:46:28.109Z,100805
2014-07-19T20:46:46.312Z,100816
2014-07-19T20:47:04.500Z,100814
2014-07-19T20:47:22.703Z,100816
2014-07-19T20:47:40.893Z,100805
2014-07-19T20:47:59.096Z,100805
2014-07-19T20:48:17.283Z,100805
2014-07-19T20:48:35.488Z,100802
2014-07-19T20:48:53.676Z,100808
2014-07-19T20:49:11.879Z,100814
2014-07-19T20:49:30.068Z,100819
2014-07-19T20:49:48.272Z,100811
2014-07-19T20:50:06.459Z,100814
2014-07-19T20:50:24.647Z,100819
2014-07-19T20:50:42.852Z,100811
2014-07-19T20:51:01.039Z,100814
2014-07-19T20:51:19.242Z,100808
2014-07-19T20:51:37.432Z,100819
2014-07-19T20:51:55.619Z,100808
2014-07-19T20:52:13.822Z,100811
2014-07-19T20:52:32.010Z,100808
2014-07-19T20:52:50.199Z,100819
2014-07-19T20:53:08.387Z,100811
2014-07-19T20:53:26.590Z,100808
2014-07-19T20:53:44.780Z,100817
2014-07-19T20:54:02.983Z,100814
2014-07-19T20:54:21.170Z,100811
2014-07-19T20:54:39.373Z,100811
2014-07-19T20:54:57.563Z,100820
2014-07-19T20:55:15.766Z,100820
2014-07-19T20:55:33.953Z,100814
2014-07-19T20:55:52.159Z,100831
2014-07-19T20:56:10.362Z,100808
2014-07-19T20:56:28.549Z,100811
2014-07-19T20:56:46.754Z,100814
2014-07-19T20:57:04.942Z,100808
2014-07-19T20:57:23.145Z,100805
2014-07-19T20:57:41.332Z,100814
2014-07-19T20:57:59.538Z,100811
2014-07-19T20:58:17.725Z,100808
2014-07-19T20:58:35.928Z,100820
2014-07-19T20:58:54.118Z,100820
2014-07-19T20:59:12.321Z,100817
2014-07-19T20:59:30.508Z,100808
2014-07-19T20:59:48.713Z,100814
2014-07-19T21:00:06.932Z,100814
2014-07-19T21:00:25.120Z,100823
2014-07-19T21:00:43.307Z,100808
2014-07-19T21:01:01.497Z,100822
2014-07-19T21:01:19.700Z,100817
2014-07-19T21:01:37.887Z,100814
2014-07-19T21:01:56.091Z,100820
2014-07-19T21:02:14.279Z,100808
2014-07-19T21:02:32.529Z,100817
2014-07-19T21:02:50.718Z,100820
2014-07-19T21:03:08.922Z,100823
2014-07-19T21:03:27.109Z,100817
2014-07-19T21:03:45.312Z,100820
2014-07-19T21:04:03.503Z,100814
2014-07-19T21:04:21.706Z,100814
2014-07-19T21:04:39.893Z,100805
2014-07-19T21:04:58.098Z,100817
2014-07-19T21:05:16.302Z,100817
2014-07-19T21:05:34.489Z,100811
2014-07-19T21:05:52.693Z,100811
2014-07-19T21:06:10.881Z,100820
2014-07-19T21:06:29.084Z,100800
2014-07-19T21:06:47.271Z,100814
2014-07-19T21:07:05.476Z,100805
2014-07-19T21:07:23.664Z,100814
2014-07-19T21:07:41.883Z,100811
2014-07-19T21:08:00.072Z,100805
2014-07-19T21:08:18.275Z,100811
2014-07-19T21:08:36.478Z,100808
2014-07-19T21:08:54.668Z,100817
2014-07-19T21:09:12.871Z,100805
2014-07-19T21:09:31.059Z,100814
2014-07-19T21:09:49.246Z,100811
2014-07-19T21:10:07.451Z,100805
2014-07-19T21:10:25.654Z,100814
2014-07-19T21:10:43.842Z,100814
2014-07-19T21:11:02.048Z,100799
2014-07-19T21:11:20.235Z,100805
2014-07-19T21:11:38.439Z,100805
2014-07-19T21:11:56.627Z,100811
2014-07-19T21:12:14.830Z,100808
2014-07-19T21:12:33.018Z,100802
2014-07-19T21:12:51.221Z,100805
2014-07-19T21:13:09.411Z,100805
2014-07-19T21:13:27.599Z,100808
2014-07-19T21:13:45.802Z,100802
2014-07-19T21:14:03.990Z,100805
2014-07-19T21:14:22.178Z,100808
2014-07-19T21:14:40.381Z,100811
2014-07-19T21:14:58.586Z,100799
2014-07-19T21:15:16.774Z,100805
2014-07-19T21:15:34.977Z,100802
2014-07-19T21:15:53.164Z,100802
2014-07-19T21:16:11.368Z,100814
2014-07-19T21:16:29.556Z,100797
2014-07-19T21:16:47.759Z,100811
2014-07-19T21:17:05.950Z,100805
2014-07-19T21:17:24.137Z,100805
2014-07-19T21:17:42.340Z,100811
2014-07-19T21:18:00.545Z,100808
2014-07-19T21:18:18.733Z,100808
2014-07-19T21:18:36.936Z,100811
2014-07-19T21:18:55.123Z,100814
2014-07-19T21:19:13.329Z,100805
2014-07-19T21:19:31.516Z,100816
2014-07-19T21:19:49.704Z,100808
2014-07-19T21:20:07.908Z,100808
2014-07-19T21:20:26.111Z,100805
2014-07-19T21:20:44.298Z,100814
2014-07-19T21:21:02.504Z,100817
2014-07-19T21:21:20.692Z,100808
2014-07-19T21:21:38.879Z,100808
2014-07-19T21:21:57.083Z,100802
2014-07-19T21:22:15.272Z,100808
2014-07-19T21:22:33.460Z,100811
2014-07-19T21:22:51.663Z,100817
2014-07-19T21:23:09.852Z,100805
2014-07-19T21:23:28.055Z,100811
2014-07-19T21:23:46.243Z,100811
2014-07-19T21:24:04.448Z,100802
2014-07-19T21:24:22.635Z,100808
2014-07-19T21:24:40.839Z,100805
2014-07-19T21:24:59.026Z,100802
2014-07-19T21:25:17.230Z,100808
2014-07-19T21:25:35.418Z,100808
2014-07-19T21:25:53.605Z,100814
2014-07-19T21:26:11.810Z,100811
2014-07-19T21:26:30.013Z,100799
2014-07-19T21:26:48.201Z,100814
2014-07-19T21:27:06.406Z,100811
2014-07-19T21:27:24.594Z,100805
2014-07-19T21:27:42.797Z,100816
2014-07-19T21:28:00.984Z,100813
2014-07-19T21:28:19.205Z,100810
2014-07-19T21:28:37.377Z,100808
2014-07-19T21:28:55.580Z,100808
2014-07-19T21:29:13.769Z,100811
2014-07-19T21:29:31.973Z,100808
2014-07-19T21:29:50.160Z,100811
2014-07-19T21:30:08.365Z,100813
2014-07-19T21:30:26.553Z,100805
2014-07-19T21:30:44.756Z,100808
2014-07-19T21:31:02.943Z,100810
2014-07-19T21:31:21.148Z,100802
2014-07-19T21:31:39.336Z,100816
2014-07-19T21:31:57.539Z,100802
2014-07-19T21:32:15.728Z,100810
2014-07-19T21:32:33.931Z,100813
2014-07-19T21:32:52.118Z,100810
2014-07-19T21:33:10.324Z,100802
2014-07-19T21:33:28.512Z,100802
2014-07-19T21:33:46.715Z,100805
2014-07-19T21:34:04.902Z,100799
2014-07-19T21:34:23.108Z,100797
2014-07-19T21:34:41.295Z,100808
2014-07-19T21:34:59.498Z,100813
2014-07-19T21:35:17.688Z,100799
2014-07-19T21:35:35.891Z,100797
2014-07-19T21:35:54.078Z,100791
2014-07-19T21:36:12.282Z,100799
2014-07-19T21:36:30.470Z,100802
2014-07-19T21:36:48.673Z,100808
2014-07-19T21:37:06.876Z,100799
2014-07-19T21:37:25.066Z,100802
2014-07-19T21:37:43.253Z,100802
2014-07-19T21:38:01.456Z,100797
2014-07-19T21:38:19.661Z,100802
2014-07-19T21:38:37.880Z,100805
2014-07-19T21:38:56.099Z,100794
2014-07-19T21:39:14.320Z,100799
2014-07-19T21:39:32.523Z,100791
2014-07-19T21:39:50.726Z,100805
2014-07-19T21:40:08.929Z,100799
2014-07-19T21:40:27.181Z,100794
2014-07-19T21:40:45.384Z,100799
2014-07-19T21:41:03.572Z,100794
2014-07-19T21:41:21.777Z,100808
2014-07-19T21:41:39.980Z,100791
2014-07-19T21:41:58.167Z,100805
2014-07-19T21:42:16.388Z,100808
2014-07-19T21:42:34.576Z,100802
2014-07-19T21:42:52.763Z,100797
2014-07-19T21:43:10.966Z,100797
2014-07-19T21:43:29.204Z,100799
2014-07-19T21:43:47.438Z,100799
2014-07-19T21:44:05.626Z,100795
2014-07-19T21:44:23.845Z,100792
2014-07-19T21:44:42.048Z,100795
2014-07-19T21:45:00.252Z,100795
2014-07-19T21:45:18.441Z,100799
2014-07-19T21:45:36.629Z,100802
2014-07-19T21:45:54.832Z,100789
2014-07-19T21:46:13.035Z,100797
2014-07-19T21:46:31.241Z,100789
2014-07-19T21:46:49.460Z,100792
2014-07-19T21:47:07.663Z,100792
2014-07-19T21:47:25.914Z,100802
2014-07-19T21:47:44.101Z,100789
2014-07-19T21:48:02.304Z,100799
2014-07-19T21:48:20.508Z,100789
2014-07-19T21:48:38.697Z,100797
2014-07-19T21:48:56.900Z,100799
2014-07-19T21:49:15.088Z,100789
2014-07-19T21:49:33.293Z,100789
2014-07-19T21:49:51.480Z,100783
2014-07-19T21:50:09.668Z,100802
2014-07-19T21:50:27.871Z,100799
2014-07-19T21:50:46.060Z,100789
2014-07-19T21:51:04.264Z,100797
2014-07-19T21:51:22.451Z,100795
2014-07-19T21:51:40.079Z,100797
2014-07-19T21:51:58.267Z,100795
2014-07-19T21:52:16.470Z,100789
2014-07-19T21:52:34.657Z,100795
2014-07-19T21:52:52.877Z,100800
2014-07-19T21:53:11.080Z,100789
2014-07-19T21:53:29.283Z,100797
2014-07-19T21:53:47.474Z,100792
2014-07-19T21:54:05.661Z,100797
2014-07-19T21:54:23.864Z,100795
2014-07-19T21:54:42.052Z,100792
2014-07-19T21:55:00.257Z,100789
2014-07-19T21:55:18.460Z,100786
2014-07-19T21:55:36.648Z,100797
2014-07-19T21:55:54.852Z,100789
2014-07-19T21:56:13.039Z,100795
2014-07-19T21:56:31.242Z,100786
2014-07-19T21:56:49.433Z,100795
2014-07-19T21:57:07.636Z,100792
2014-07-19T21:57:25.839Z,100792
2014-07-19T21:57:44.073Z,100792
2014-07-19T21:58:02.262Z,100792
2014-07-19T21:58:20.449Z,100795
2014-07-19T21:58:38.653Z,100786
2014-07-19T21:58:56.842Z,100797
2014-07-19T21:59:15.061Z,100789
2014-07-19T21:59:33.280Z,100795
2014-07-19T21:59:51.485Z,100792
2014-07-19T22:00:09.672Z,100795
2014-07-19T22:00:27.907Z,100795
2014-07-19T22:00:46.094Z,100800
2014-07-19T22:01:04.299Z,100802
2014-07-19T22:01:22.487Z,100795
2014-07-19T22:01:40.674Z,100795
2014-07-19T22:01:58.879Z,100797
2014-07-19T22:02:17.067Z,100792
2014-07-19T22:02:35.270Z,100795
2014-07-19T22:02:53.459Z,100797
2014-07-19T22:03:11.663Z,100792
2014-07-19T22:03:29.866Z,100789
2014-07-19T22:03:48.053Z,100792
2014-07-19T22:04:06.258Z,100786
2014-07-19T22:04:24.446Z,100792
2014-07-19T22:04:42.649Z,100792
2014-07-19T22:05:00.838Z,100795
2014-07-19T22:05:19.042Z,100795
2014-07-19T22:05:37.229Z,100789
2014-07-19T22:05:55.432Z,100792
